createdAt,value
2019-05-21T00:00:13.140Z,91.10
2019-05-21T00:03:17.370Z,91.10
2019-05-21T00:06:21.670Z,91.10
2019-05-21T00:09:26.028Z,91.10
2019-05-21T00:12:30.223Z,91.10
2019-05-21T00:15:34.450Z,91.20
2019-05-21T00:18:38.694Z,91.30
2019-05-21T00:21:43.126Z,91.30
2019-05-21T00:24:47.572Z,91.30
2019-05-21T00:27:51.915Z,91.30
2019-05-21T00:31:32.259Z,91.30
2019-05-21T00:35:12.410Z,91.20
2019-05-21T00:38:52.732Z,91.60
2019-05-21T00:42:05.066Z,91.30
2019-05-21T00:45:11.110Z,91.20
2019-05-21T00:48:15.403Z,91.20
2019-05-21T00:51:19.585Z,91.20
2019-05-21T00:54:23.992Z,91.20
2019-05-21T00:57:28.261Z,91.10
2019-05-21T01:00:32.559Z,91.20
2019-05-21T01:03:36.747Z,91.10
2019-05-21T01:06:41.179Z,91.20
2019-05-21T01:09:45.348Z,91.10
2019-05-21T01:12:49.579Z,91.00
2019-05-21T01:15:53.785Z,91.10
2019-05-21T01:19:01.082Z,91.10
2019-05-21T01:22:05.291Z,91.10
2019-05-21T01:25:12.281Z,91.10
2019-05-21T01:28:16.868Z,91.10
2019-05-21T01:31:21.258Z,91.10
2019-05-21T01:34:25.595Z,91.50
2019-05-21T01:37:31.087Z,91.10
2019-05-21T01:40:35.396Z,91.10
2019-05-21T01:43:39.644Z,91.20
2019-05-21T01:46:43.839Z,91.10
2019-05-21T01:49:48.190Z,91.10
2019-05-21T01:52:52.459Z,91.20
2019-05-21T01:55:56.878Z,90.90
2019-05-21T01:59:01.110Z,91.00
2019-05-21T02:02:05.497Z,91.00
2019-05-21T02:05:10.016Z,90.90
2019-05-21T02:08:14.288Z,91.00
2019-05-21T02:11:18.508Z,91.00
2019-05-21T02:14:22.784Z,91.00
2019-05-21T02:17:27.143Z,91.10
2019-05-21T02:20:31.594Z,91.10
2019-05-21T02:23:35.874Z,90.90
2019-05-21T02:26:40.170Z,91.10
2019-05-21T02:29:44.467Z,91.10
2019-05-21T02:32:48.778Z,91.00
2019-05-21T02:35:54.849Z,91.50
2019-05-21T02:38:59.138Z,91.20
2019-05-21T02:42:03.411Z,91.10
2019-05-21T02:45:09.380Z,91.10
2019-05-21T02:48:13.922Z,91.10
2019-05-21T02:51:18.235Z,91.10
2019-05-21T02:54:39.194Z,91.00
2019-05-21T02:57:39.055Z,91.10
2019-05-21T03:01:01.343Z,91.20
2019-05-21T03:04:05.665Z,91.20
2019-05-21T03:07:18.770Z,91.30
2019-05-21T03:10:23.139Z,91.30
2019-05-21T03:13:27.344Z,91.40
2019-05-21T03:16:31.670Z,91.20
2019-05-21T03:19:35.943Z,91.30
2019-05-21T03:22:40.173Z,91.30
2019-05-21T03:25:44.452Z,91.30
2019-05-21T03:28:48.755Z,91.30
2019-05-21T03:31:53.080Z,91.30
2019-05-21T03:34:57.430Z,91.40
2019-05-21T03:38:01.718Z,91.40
2019-05-21T03:41:06.083Z,91.50
2019-05-21T03:44:10.402Z,91.50
2019-05-21T03:47:14.764Z,91.50
2019-05-21T03:50:19.080Z,91.50
2019-05-21T03:53:23.426Z,91.50
2019-05-21T03:56:27.756Z,91.40
2019-05-21T03:59:32.119Z,91.50
2019-05-21T04:02:36.396Z,91.50
2019-05-21T04:05:40.772Z,91.50
2019-05-21T04:08:45.047Z,91.50
2019-05-21T04:11:53.140Z,91.70
2019-05-21T04:14:59.590Z,91.70
2019-05-21T04:18:08.521Z,91.70
2019-05-21T04:21:12.824Z,91.60
2019-05-21T04:24:17.079Z,91.50
2019-05-21T04:27:21.262Z,91.60
2019-05-21T04:30:25.647Z,91.60
2019-05-21T04:33:29.838Z,91.70
2019-05-21T04:36:34.148Z,91.60
2019-05-21T04:39:38.368Z,91.50
2019-05-21T04:42:42.651Z,91.50
2019-05-21T04:45:46.921Z,91.50
2019-05-21T04:48:51.216Z,91.50
2019-05-21T04:51:55.483Z,91.50
2019-05-21T04:54:59.841Z,91.30
2019-05-21T04:58:04.273Z,91.20
2019-05-21T05:01:08.642Z,91.10
2019-05-21T05:04:12.900Z,91.10
2019-05-21T05:07:27.621Z,90.90
2019-05-21T05:10:23.435Z,91.10
2019-05-21T05:13:27.754Z,90.40
2019-05-21T05:16:32.077Z,90.40
2019-05-21T05:19:36.542Z,90.30
2019-05-21T05:22:40.830Z,90.30
2019-05-21T05:25:45.154Z,90.20
2019-05-21T05:28:49.432Z,89.80
2019-05-21T05:31:53.776Z,90.10
2019-05-21T05:34:58.060Z,89.90
2019-05-21T05:38:02.580Z,90.00
2019-05-21T05:41:06.843Z,89.20
2019-05-21T05:44:11.301Z,89.30
2019-05-21T05:47:15.598Z,89.20
2019-05-21T05:50:22.446Z,89.40
2019-05-21T05:53:26.738Z,89.10
2019-05-21T05:56:31.208Z,89.60
2019-05-21T05:59:35.607Z,89.50
2019-05-21T06:02:40.021Z,89.10
2019-05-21T06:05:44.328Z,88.80
2019-05-21T06:08:49.194Z,88.80
2019-05-21T06:11:53.466Z,88.60
2019-05-21T06:14:57.724Z,88.00
2019-05-21T06:18:02.067Z,87.80
2019-05-21T06:21:06.455Z,88.20
2019-05-21T06:24:13.481Z,88.00
2019-05-21T06:27:16.739Z,88.50
2019-05-21T06:30:21.109Z,87.80
2019-05-21T06:33:25.411Z,87.20
2019-05-21T06:36:29.632Z,87.50
2019-05-21T06:39:34.053Z,86.70
2019-05-21T06:42:38.312Z,87.10
2019-05-21T06:45:42.686Z,86.70
2019-05-21T06:48:46.972Z,87.00
2019-05-21T06:51:51.303Z,86.30
2019-05-21T06:54:55.741Z,86.50
2019-05-21T06:58:00.116Z,86.10
2019-05-21T07:01:04.357Z,85.70
2019-05-21T07:04:08.620Z,86.60
2019-05-21T07:07:12.909Z,85.50
2019-05-21T07:10:17.461Z,85.70
2019-05-21T07:13:21.742Z,85.20
2019-05-21T07:16:26.022Z,84.90
2019-05-21T07:19:30.230Z,84.70
2019-05-21T07:22:34.707Z,84.40
2019-05-21T07:25:42.007Z,84.60
2019-05-21T07:28:46.356Z,84.00
2019-05-21T07:31:50.608Z,84.30
2019-05-21T07:34:55.026Z,83.90
2019-05-21T07:37:59.237Z,84.30
2019-05-21T07:41:03.622Z,84.00
2019-05-21T07:44:07.908Z,83.10
2019-05-21T07:47:12.270Z,84.40
2019-05-21T07:50:16.572Z,83.90
2019-05-21T07:53:20.906Z,83.50
2019-05-21T07:56:25.289Z,83.20
2019-05-21T07:59:31.104Z,82.90
2019-05-21T08:02:35.393Z,82.40
2019-05-21T08:05:39.768Z,82.80
2019-05-21T08:08:44.260Z,82.70
2019-05-21T08:11:48.962Z,82.50
2019-05-21T08:14:58.225Z,82.70
2019-05-21T08:18:02.540Z,82.50
2019-05-21T08:21:06.799Z,82.80
2019-05-21T08:24:11.089Z,82.90
2019-05-21T08:27:15.439Z,82.60
2019-05-21T08:30:19.945Z,82.10
2019-05-21T08:33:24.246Z,81.90
2019-05-21T08:36:28.545Z,81.30
2019-05-21T08:39:32.798Z,81.30
2019-05-21T08:42:37.054Z,81.70
2019-05-21T08:45:41.322Z,81.60
2019-05-21T08:48:45.747Z,81.20
2019-05-21T08:51:49.960Z,81.80
2019-05-21T08:54:56.512Z,80.70
2019-05-21T08:58:07.030Z,80.20
2019-05-21T09:01:06.246Z,80.20
2019-05-21T09:04:10.514Z,80.20
2019-05-21T09:07:14.867Z,80.50
2019-05-21T09:10:19.120Z,80.80
2019-05-21T09:13:23.345Z,79.10
2019-05-21T09:16:27.598Z,79.80
2019-05-21T09:19:36.121Z,79.70
2019-05-21T09:22:37.868Z,78.80
2019-05-21T09:25:42.181Z,78.60
2019-05-21T09:28:46.416Z,76.60
2019-05-21T09:31:50.636Z,77.00
2019-05-21T09:34:54.907Z,76.20
2019-05-21T09:37:59.141Z,75.90
2019-05-21T09:41:03.487Z,75.50
2019-05-21T09:44:07.771Z,74.80
2019-05-21T09:47:11.973Z,74.60
2019-05-21T09:50:16.686Z,73.50
2019-05-21T09:53:20.967Z,73.20
2019-05-21T09:56:35.388Z,71.90
2019-05-21T09:59:54.339Z,70.90
2019-05-21T10:02:58.607Z,71.50
2019-05-21T10:06:02.880Z,73.20
2019-05-21T10:09:11.995Z,71.60
2019-05-21T10:12:16.232Z,73.20
2019-05-21T10:15:20.512Z,70.90
2019-05-21T10:18:24.776Z,71.40
2019-05-21T10:21:28.990Z,72.70
2019-05-21T10:24:33.267Z,70.50
2019-05-21T10:27:37.677Z,71.30
2019-05-21T10:30:41.944Z,70.50
2019-05-21T10:33:46.235Z,71.20
2019-05-21T10:36:50.467Z,69.80
2019-05-21T10:39:54.798Z,70.70
2019-05-21T10:43:02.053Z,70.30
2019-05-21T10:46:06.689Z,69.90
2019-05-21T10:49:10.871Z,71.20
2019-05-21T10:52:15.174Z,70.50
2019-05-21T10:55:19.398Z,69.00
2019-05-21T10:58:23.839Z,68.50
2019-05-21T11:01:46.028Z,69.00
2019-05-21T11:05:00.502Z,67.60
2019-05-21T11:08:23.103Z,67.50
2019-05-21T11:11:11.809Z,67.00
2019-05-21T11:14:16.896Z,68.80
2019-05-21T11:17:21.319Z,68.00
2019-05-21T11:20:25.646Z,68.60
2019-05-21T11:23:29.895Z,68.20
2019-05-21T11:26:34.180Z,69.10
2019-05-21T11:29:38.415Z,68.60
2019-05-21T11:32:42.651Z,69.90
2019-05-21T11:35:47.995Z,70.00
2019-05-21T11:38:52.287Z,69.00
2019-05-21T11:41:56.794Z,67.80
2019-05-21T11:45:01.151Z,67.80
2019-05-21T11:48:05.384Z,68.20
2019-05-21T11:51:12.630Z,68.60
2019-05-21T11:54:15.619Z,68.80
2019-05-21T11:57:20.006Z,69.00
2019-05-21T12:00:26.145Z,68.20
2019-05-21T12:03:30.389Z,67.10
2019-05-21T12:06:34.877Z,70.00
2019-05-21T12:09:39.164Z,65.60
2019-05-21T12:12:43.403Z,65.50
2019-05-21T12:15:47.736Z,65.70
2019-05-21T12:18:51.976Z,65.80
2019-05-21T12:21:56.159Z,64.60
2019-05-21T12:25:00.402Z,64.40
2019-05-21T12:28:04.781Z,63.00
2019-05-21T12:31:09.025Z,64.30
2019-05-21T12:34:13.323Z,62.70
2019-05-21T12:37:17.577Z,63.10
2019-05-21T12:40:22.043Z,62.90
2019-05-21T12:43:26.274Z,61.70
2019-05-21T12:46:30.538Z,61.40
2019-05-21T12:49:34.834Z,62.10
2019-05-21T12:52:39.152Z,61.60
2019-05-21T12:55:43.545Z,61.50
2019-05-21T12:58:47.824Z,61.20
2019-05-21T13:01:52.325Z,62.30
2019-05-21T13:04:56.581Z,60.80
2019-05-21T13:08:00.835Z,61.20
2019-05-21T13:11:05.128Z,63.20
2019-05-21T13:14:09.473Z,61.10
2019-05-21T13:17:13.975Z,60.50
2019-05-21T13:20:18.694Z,59.60
2019-05-21T13:23:23.080Z,60.20
2019-05-21T13:26:27.312Z,61.20
2019-05-21T13:29:31.913Z,60.50
2019-05-21T13:32:36.445Z,62.50
2019-05-21T13:35:40.788Z,60.90
2019-05-21T13:38:48.094Z,61.00
2019-05-21T13:41:52.336Z,60.80
2019-05-21T13:44:57.734Z,60.50
2019-05-21T13:48:02.009Z,60.20
2019-05-21T13:51:06.441Z,61.10
2019-05-21T13:54:10.752Z,61.30
2019-05-21T13:57:15.068Z,61.70
2019-05-21T14:00:28.417Z,60.40
2019-05-21T14:03:32.661Z,61.00
2019-05-21T14:06:37.018Z,62.50
2019-05-21T14:09:41.360Z,62.00
2019-05-21T14:12:47.814Z,62.00
2019-05-21T14:15:52.100Z,61.70
2019-05-21T14:18:56.466Z,62.90
2019-05-21T14:22:00.746Z,62.50
2019-05-21T14:25:05.281Z,63.70
2019-05-21T14:28:09.579Z,62.30
2019-05-21T14:31:13.850Z,61.00
2019-05-21T14:34:18.264Z,61.00
2019-05-21T14:37:22.449Z,60.00
2019-05-21T14:40:32.185Z,60.90
2019-05-21T14:43:56.707Z,62.50
2019-05-21T14:46:52.476Z,62.30
2019-05-21T14:50:02.077Z,61.60
2019-05-21T14:53:07.300Z,60.80
2019-05-21T14:56:11.571Z,61.50
2019-05-21T14:59:15.908Z,61.90
2019-05-21T15:02:20.166Z,60.70
2019-05-21T15:05:24.598Z,60.00
2019-05-21T15:08:28.914Z,60.30
2019-05-21T15:11:33.213Z,59.60
2019-05-21T15:14:37.451Z,60.20
2019-05-21T15:17:41.751Z,60.40
2019-05-21T15:20:53.859Z,60.50
2019-05-21T15:23:58.297Z,61.60
2019-05-21T15:27:02.578Z,60.50
2019-05-21T15:30:07.279Z,61.40
2019-05-21T15:33:11.552Z,61.20
2019-05-21T15:36:15.776Z,60.90
2019-05-21T15:39:19.964Z,60.70
2019-05-21T15:42:24.339Z,60.40
2019-05-21T15:45:29.061Z,60.50
2019-05-21T15:48:33.353Z,60.80
2019-05-21T15:51:37.656Z,61.40
2019-05-21T15:54:41.905Z,59.50
2019-05-21T15:57:46.152Z,59.90
2019-05-21T16:00:51.519Z,61.40
2019-05-21T16:03:55.803Z,60.70
2019-05-21T16:07:00.166Z,60.90
2019-05-21T16:10:04.892Z,61.80
2019-05-21T16:13:09.221Z,61.20
2019-05-21T16:16:13.540Z,61.60
2019-05-21T16:19:17.784Z,61.50
2019-05-21T16:22:22.065Z,63.20
2019-05-21T16:25:26.353Z,63.20
2019-05-21T16:28:30.618Z,63.30
2019-05-21T16:31:34.916Z,63.90
2019-05-21T16:34:39.113Z,63.30
2019-05-21T16:37:43.464Z,63.20
2019-05-21T16:40:47.874Z,63.30
2019-05-21T16:43:52.198Z,63.20
2019-05-21T16:46:56.458Z,63.30
2019-05-21T16:50:00.761Z,64.10
2019-05-21T16:53:05.071Z,64.90
2019-05-21T16:56:09.383Z,64.20
2019-05-21T16:59:13.668Z,63.30
2019-05-21T17:02:17.999Z,62.20
2019-05-21T17:05:22.256Z,63.20
2019-05-21T17:08:26.587Z,63.00
2019-05-21T17:11:30.892Z,62.10
2019-05-21T17:14:35.200Z,63.00
2019-05-21T17:17:39.505Z,63.10
2019-05-21T17:20:43.863Z,63.10
2019-05-21T17:23:48.176Z,63.10
2019-05-21T17:26:52.544Z,63.10
2019-05-21T17:29:56.917Z,62.80
2019-05-21T17:33:01.230Z,63.80
2019-05-21T17:36:05.563Z,63.70
2019-05-21T17:39:09.922Z,63.70
2019-05-21T17:42:15.778Z,64.00
2019-05-21T17:45:20.660Z,64.30
2019-05-21T17:48:24.960Z,64.60
2019-05-21T17:51:29.477Z,65.20
2019-05-21T17:54:33.750Z,65.60
2019-05-21T17:57:38.528Z,65.20
2019-05-21T18:00:52.229Z,66.00
2019-05-21T18:03:56.611Z,66.70
2019-05-21T18:07:01.619Z,66.80
2019-05-21T18:10:06.866Z,66.30
2019-05-21T18:13:12.534Z,66.90
2019-05-21T18:16:16.855Z,67.20
2019-05-21T18:19:21.565Z,67.40
2019-05-21T18:22:26.681Z,68.10
2019-05-21T18:25:31.020Z,68.70
2019-05-21T18:28:35.830Z,68.60
2019-05-21T18:31:40.713Z,68.90
2019-05-21T18:34:45.158Z,69.60
2019-05-21T18:37:49.507Z,70.00
2019-05-21T18:40:53.760Z,70.00
2019-05-21T18:43:58.023Z,70.30
2019-05-21T18:47:02.369Z,70.50
2019-05-21T18:50:06.679Z,70.90
2019-05-21T18:53:10.979Z,71.00
2019-05-21T18:56:15.304Z,71.40
2019-05-21T18:59:19.788Z,71.60
2019-05-21T19:02:24.069Z,72.00
2019-05-21T19:05:28.379Z,72.30
2019-05-21T19:08:33.841Z,72.50
2019-05-21T19:11:38.515Z,72.70
2019-05-21T19:14:44.930Z,72.80
2019-05-21T19:17:49.001Z,73.20
2019-05-21T19:20:53.376Z,73.50
2019-05-21T19:23:57.852Z,74.00
2019-05-21T19:27:02.204Z,74.70
2019-05-21T19:30:07.452Z,74.90
2019-05-21T19:33:11.836Z,75.10
2019-05-21T19:36:16.087Z,75.60
2019-05-21T19:39:20.418Z,76.30
2019-05-21T19:42:24.760Z,76.70
2019-05-21T19:45:31.414Z,76.80
2019-05-21T19:48:35.412Z,76.80
2019-05-21T19:51:39.644Z,76.80
2019-05-21T19:54:43.951Z,76.80
2019-05-21T19:57:48.560Z,76.90
2019-05-21T20:00:54.828Z,77.30
2019-05-21T20:03:59.112Z,78.00
2019-05-21T20:07:05.411Z,78.00
2019-05-21T20:10:10.374Z,78.00
2019-05-21T20:13:14.882Z,78.30
2019-05-21T20:16:19.971Z,78.30
2019-05-21T20:19:25.472Z,78.40
2019-05-21T20:22:33.771Z,78.50
2019-05-21T20:25:38.558Z,78.90
2019-05-21T20:28:42.852Z,80.10
2019-05-21T20:31:47.505Z,79.40
2019-05-21T20:34:52.112Z,79.30
2019-05-21T20:37:56.364Z,79.10
2019-05-21T20:41:00.775Z,79.80
2019-05-21T20:44:07.317Z,79.80
2019-05-21T20:47:13.474Z,80.10
2019-05-21T20:50:18.946Z,80.10
2019-05-21T20:53:23.588Z,80.00
2019-05-21T20:56:28.382Z,79.70
2019-05-21T20:59:32.632Z,79.20
2019-05-21T21:02:37.461Z,79.50
2019-05-21T21:05:41.997Z,79.40
2019-05-21T21:08:46.623Z,79.70
2019-05-21T21:11:50.902Z,79.40
2019-05-21T21:14:56.058Z,79.80
2019-05-21T21:18:00.905Z,78.50
2019-05-21T21:21:05.317Z,78.90
2019-05-21T21:24:10.354Z,79.40
2019-05-21T21:27:15.543Z,78.50
2019-05-21T21:30:20.020Z,78.80
2019-05-21T21:33:24.378Z,79.50
2019-05-21T21:36:29.784Z,79.00
2019-05-21T21:39:34.869Z,79.50
2019-05-21T21:42:39.596Z,79.70
2019-05-21T21:45:44.010Z,79.30
2019-05-21T21:48:48.582Z,79.70
2019-05-21T21:51:53.292Z,79.70
2019-05-21T21:54:57.627Z,79.20
2019-05-21T21:58:02.071Z,78.00
2019-05-21T22:01:43.110Z,77.30
2019-05-21T22:05:08.060Z,77.20
2019-05-21T22:08:12.532Z,76.30
2019-05-21T22:11:18.400Z,77.00
2019-05-21T22:14:23.183Z,76.40
2019-05-21T22:17:27.431Z,76.20
2019-05-21T22:20:32.088Z,75.80
2019-05-21T22:23:36.662Z,76.50
2019-05-21T22:26:41.467Z,77.20
2019-05-21T22:29:45.908Z,78.00
2019-05-21T22:32:50.181Z,77.80
2019-05-21T22:35:54.488Z,78.20
2019-05-21T22:38:58.739Z,78.40
2019-05-21T22:42:03.166Z,79.10
2019-05-21T22:45:09.233Z,79.40
2019-05-21T22:48:13.762Z,79.20
2019-05-21T22:51:18.036Z,79.30
2019-05-21T22:54:22.405Z,79.50
2019-05-21T22:57:26.659Z,79.00
2019-05-21T23:00:32.615Z,79.60
2019-05-21T23:03:37.184Z,80.10
2019-05-21T23:06:41.793Z,79.50
2019-05-21T23:09:46.059Z,80.30
2019-05-21T23:12:50.519Z,80.00
2019-05-21T23:15:55.116Z,80.00
2019-05-21T23:18:59.756Z,80.60
2019-05-21T23:22:05.787Z,80.80
2019-05-21T23:25:11.417Z,80.90
2019-05-21T23:28:15.959Z,80.30
2019-05-21T23:31:20.750Z,81.00
2019-05-21T23:34:25.417Z,81.00
2019-05-21T23:37:31.391Z,82.10
2019-05-21T23:40:35.774Z,81.30
2019-05-21T23:43:40.241Z,81.50
2019-05-21T23:46:44.687Z,81.30
2019-05-21T23:49:49.044Z,81.30
2019-05-21T23:52:55.191Z,81.70
2019-05-21T23:55:59.496Z,81.60
2019-05-21T23:59:05.695Z,81.40
